Ny Trader I — DUFE — position and weather

sailwx.info

Track history (hours):
 
Tides and Currents Weather Stations Pressure Air Temp Water Temp Dewpoint Dewpoint Depression Visibility Wind Speed Wind Dir Waves Ship Positions

Ny Trader I

Last reported at 2017-Oct-09 07:08 UTC. Time now 2017-Oct-19 02:03 UTC.
Position N 24°11' W 113°57'.
Warning: this ship's position is 9 days out of date.

Length 180 m; draft 7.5 m.

Type: Cargo ship. MMSI: 548881000.

Date/timePositionNaut miles runAvg speedWind from/ knotsBaromVisibWave heightAir tempDewpointWater temp
2017-Oct-09 07:08N 24°11' W 113°57'4412.3
2017-Oct-09 03:32N 24°40' W 114°33'1 9.2
2017-Oct-09 03:28N 24°41' W 114°34'5312.2
2017-Oct-08 23:09N 25°16' W 115°18'212.2
2017-Oct-08 22:58N 25°17' W 115°20'612.4
2017-Oct-08 22:30N 25°21' W 115°24'712.2
2017-Oct-08 21:57N 25°25' W 115°30'612.5
2017-Oct-08 21:27N 25°29' W 115°36'612.2
2017-Oct-08 20:59N 25°33' W 115°40'712.5
2017-Oct-08 20:24N 25°38' W 115°46'512.4
2017-Oct-08 19:59N 25°41' W 115°51'612.5
2017-Oct-08 19:30N 25°45' W 115°56'612.5
2017-Oct-08 19:00N 25°49' W 116°01'612.3
2017-Oct-08 18:30N 25°53' W 116°06'612.5
2017-Oct-08 18:00N 25°57' W 116°11'612.5
2017-Oct-08 17:30N 26°02' W 116°16'612.6
2017-Oct-08 17:00N 26°06' W 116°22'612.6
2017-Oct-08 16:30N 26°10' W 116°27'612.5
2017-Oct-08 16:00N 26°14' W 116°32'612.3
2017-Oct-08 15:30N 26°18' W 116°37'612.4
2017-Oct-08 15:00N 26°22' W 116°42'612.1
2017-Oct-08 14:30N 26°26' W 116°47'612.2
2017-Oct-08 14:00N 26°30' W 116°52'612.2
2017-Oct-08 13:30N 26°35' W 116°57'612.0
2017-Oct-08 13:00N 26°38' W 117°02'612.1
2017-Oct-08 12:30N 26°42' W 117°08'612.1
2017-Oct-08 12:00N 26°46' W 117°13'712.1
2017-Oct-08 11:28N 26°50' W 117°19'612.3
2017-Oct-08 11:00N 26°54' W 117°23'1112.3
2017-Oct-08 10:07N 27°01' W 117°33'1712.2
2017-Oct-08 08:46N 27°12' W 117°47'312.3
2017-Oct-08 08:29N 27°14' W 117°50'712.3
2017-Oct-08 07:56N 27°19' W 117°55'712.4
2017-Oct-08 07:23N 27°23' W 118°01'512.5
2017-Oct-08 07:00N 27°26' W 118°05'612.4
2017-Oct-08 06:30N 27°30' W 118°10'612.5
2017-Oct-08 05:59N 27°35' W 118°16'612.5
2017-Oct-08 05:30N 27°39' W 118°21'612.5
2017-Oct-08 05:00N 27°43' W 118°26'2012.5
2017-Oct-08 03:24N 27°56' W 118°43'512.3
2017-Oct-08 03:00N 27°59' W 118°48'712.3
2017-Oct-08 02:26N 28°04' W 118°54'2112.4
2017-Oct-08 00:45N 28°17' W 119°11'312.6
2017-Oct-08 00:30N 28°20' W 119°14'1112.8
2017-Oct-07 23:40N 28°26' W 119°23'212.8
2017-Oct-07 23:30N 28°28' W 119°25'713.0
2017-Oct-07 23:00N 28°32' W 119°31'1413.2
2017-Oct-07 21:55N 28°42' W 119°43'513.0
2017-Oct-07 21:31N 28°45' W 119°47'713.0
2017-Oct-07 21:00N 28°50' W 119°53'2712.8
2017-Oct-07 18:51N 29°08' W 120°17'3712.5
2017-Oct-07 15:52N 29°32' W 120°49'512.2
2017-Oct-07 15:29N 29°35' W 120°53'612.3
2017-Oct-07 14:58N 29°39' W 120°59'912.2
2017-Oct-07 14:14N 29°45' W 121°07'312.4
2017-Oct-07 14:00N 29°47' W 121°09'812.3
2017-Oct-07 13:21N 29°52' W 121°16'512.4
2017-Oct-07 12:58N 29°56' W 121°20'612.5
2017-Oct-07 12:30N 29°59' W 121°25'612.7
2017-Oct-07 12:00N 30°03' W 121°30'1812.6
2017-Oct-07 10:33N 30°15' W 121°47'112.5
2017-Oct-07 10:30N 30°16' W 121°47'612.5
2017-Oct-07 10:00N 30°20' W 121°52'612.4
2017-Oct-07 09:30N 30°24' W 121°58'612.5
2017-Oct-07 09:00N 30°28' W 122°03'612.6
2017-Oct-07 08:31N 30°32' W 122°09'712.6
2017-Oct-07 07:58N 30°37' W 122°15'612.6
2017-Oct-07 07:30N 30°40' W 122°20'612.5
2017-Oct-07 07:00N 30°45' W 122°25'912.6
2017-Oct-07 06:16N 30°51' W 122°33'312.6
2017-Oct-07 06:00N 30°53' W 122°36'612.4
2017-Oct-07 05:30N 30°56' W 122°42'612.4
2017-Oct-07 05:00N 31°01' W 122°48'612.7
2017-Oct-07 04:31N 31°05' W 122°53'612.8
2017-Oct-07 04:01N 31°09' W 122°59'612.8
2017-Oct-07 03:30N 31°13' W 123°05'712.5
2017-Oct-07 02:58N 31°17' W 123°10'612.6
2017-Oct-07 02:30N 31°21' W 123°16'612.6
2017-Oct-07 02:00N 31°25' W 123°21'1412.6
2017-Oct-07 00:51N 31°36' W 123°33'812.7
2017-Oct-07 00:11N 31°43' W 123°38'212.7
2017-Oct-07 00:00N 31°45' W 123°40'3112.7
2017-Oct-06 21:35N 32°12' W 123°57'212.5
2017-Oct-06 21:26N 32°14' W 123°58'1712.7
2017-Oct-06 20:06N 32°29' W 124°07'112.8
2017-Oct-06 20:01N 32°30' W 124°08'612.6
2017-Oct-06 19:30N 32°36' W 124°11'612.6
2017-Oct-06 19:00N 32°41' W 124°15'612.5
2017-Oct-06 18:30N 32°47' W 124°18'612.6
2017-Oct-06 18:00N 32°52' W 124°22'612.6
2017-Oct-06 17:30N 32°58' W 124°25'613.0
2017-Oct-06 17:00N 33°04' W 124°28'713.3
2017-Oct-06 16:30N 33°10' W 124°32'713.8
2017-Oct-06 16:00N 33°16' W 124°36'713.4
2017-Oct-06 15:30N 33°22' W 124°40'713.1
2017-Oct-06 15:00N 33°27' W 124°44'612.9
2017-Oct-06 14:30N 33°32' W 124°48'612.7
2017-Oct-06 14:00N 33°38' W 124°52'612.7
2017-Oct-06 13:30N 33°44' W 124°56'612.9
2017-Oct-06 13:00N 33°49' W 124°60'612.9
2017-Oct-06 12:30N 33°55' W 125°03'612.9
2017-Oct-06 12:00N 34°00' W 125°07'612.8
2017-Oct-06 11:30N 34°06' W 125°10'612.8
2017-Oct-06 11:00N 34°12' W 125°14'612.6
2017-Oct-06 10:30N 34°18' W 125°17'612.5
2017-Oct-06 10:00N 34°23' W 125°21'612.3
2017-Oct-06 09:30N 34°29' W 125°24'612.2
2017-Oct-06 09:00N 34°34' W 125°28'612.1
2017-Oct-06 08:30N 34°39' W 125°31'611.9
2017-Oct-06 08:00N 34°44' W 125°35'612.0
2017-Oct-06 07:30N 34°50' W 125°38'612.0
2017-Oct-06 07:00N 34°55' W 125°42'712.2
2017-Oct-06 06:24N 35°02' W 125°46'512.3
2017-Oct-06 06:00N 35°06' W 125°49'4411.8
2017-Oct-06 02:17N 35°35' W 125°09'311.6
2017-Oct-06 02:00N 35°37' W 125°06'1411.9
2017-Oct-06 00:47N 35°46' W 124°52'311.8
2017-Oct-06 00:30N 35°48' W 124°49'1611.6
2017-Oct-05 23:07N 35°59' W 124°33'111.9
2017-Oct-05 23:00N 35°59' W 124°32'1011.8
2017-Oct-05 22:11N 36°05' W 124°23'211.8
2017-Oct-05 22:00N 36°07' W 124°20'611.7
2017-Oct-05 21:30N 36°10' W 124°15'1411.7
2017-Oct-05 20:18N 36°20' W 124°02'411.7
2017-Oct-05 19:58N 36°22' W 123°58'511.4
2017-Oct-05 19:30N 36°25' W 123°53'711.8
2017-Oct-05 18:53N 36°30' W 123°46'512.0
2017-Oct-05 18:30N 36°33' W 123°41'612.1
2017-Oct-05 18:00N 36°37' W 123°35'612.0
2017-Oct-05 17:30N 36°40' W 123°30'612.2
2017-Oct-05 17:00N 36°44' W 123°24'1812.2
2017-Oct-05 15:30N 36°56' W 123°06'612.2
2017-Oct-05 15:00N 36°60' W 122°60'612.2
2017-Oct-05 14:30N 37°03' W 122°54'612.4
2017-Oct-05 14:00N 37°07' W 122°48'611.3
2017-Oct-05 13:30N 37°12' W 122°44'612.0
2017-Oct-05 13:00N 37°18' W 122°44'612.3
2017-Oct-05 12:30N 37°24' W 122°44'612.2
2017-Oct-05 12:00N 37°30' W 122°44'612.2
2017-Oct-05 11:30N 37°36' W 122°44'611.9
2017-Oct-05 11:00N 37°42' W 122°42'5 9.4
2017-Oct-05 10:30N 37°46' W 122°39'714.2
2017-Oct-05 10:01N 37°49' W 122°31'612.0
2017-Oct-05 09:31N 37°53' W 122°25'2 4.0
2017-Oct-05 09:01N 37°55' W 122°24'2 3.7
2017-Oct-05 08:31N 37°55' W 122°22'0 0.5
2017-Oct-05 08:01N 37°55' W 122°22'0 0.1
2017-Oct-05 07:25N 37°55' W 122°22'0 0.0
2017-Oct-05 06:55N 37°55' W 122°22'0 0.0
2017-Oct-05 06:16N 37°55' W 122°22'0 0.0
2017-Oct-05 05:37N 37°55' W 122°22'0 0.0
2017-Oct-05 05:25N 37°55' W 122°22'0 0.0
2017-Oct-05 04:55N 37°55' W 122°22'0 0.0
2017-Oct-05 04:25N 37°55' W 122°22'0 0.0
2017-Oct-05 03:55N 37°55' W 122°22'0 0.0
2017-Oct-05 03:28N 37°55' W 122°22'0 0.0
2017-Oct-05 02:55N 37°55' W 122°22'0 0.0
2017-Oct-05 02:28N 37°55' W 122°22'0 0.0
2017-Oct-05 01:58N 37°55' W 122°22'0 0.0
2017-Oct-05 01:28N 37°55' W 122°22'0 0.0
2017-Oct-05 00:55N 37°55' W 122°22'0 0.0
2017-Oct-05 00:25N 37°55' W 122°22'0 0.0
2017-Oct-04 23:58N 37°55' W 122°22'0 0.0
2017-Oct-04 23:25N 37°55' W 122°22'0 0.0
2017-Oct-04 22:58N 37°55' W 122°22'0 0.0
2017-Oct-04 22:28N 37°55' W 122°22'0 0.0
2017-Oct-04 21:58N 37°55' W 122°22'0 0.0
2017-Oct-04 21:19N 37°55' W 122°22'0 0.0
2017-Oct-04 20:52N 37°55' W 122°22'0 0.0
2017-Oct-04 20:25N 37°55' W 122°22'0 0.0
2017-Oct-04 19:58N 37°55' W 122°22'0 0.0
2017-Oct-04 19:19N 37°55' W 122°22'0 0.0
2017-Oct-04 18:55N 37°55' W 122°22'0 0.0
2017-Oct-04 18:28N 37°55' W 122°22'0 0.0
2017-Oct-04 17:55N 37°55' W 122°22'0 0.0
2017-Oct-04 17:28N 37°55' W 122°22'0 0.0
2017-Oct-04 16:58N 37°55' W 122°22'0 0.0
2017-Oct-04 16:28N 37°55' W 122°22'0 0.0
2017-Oct-04 15:49N 37°55' W 122°22'0 0.0
2017-Oct-04 15:28N 37°55' W 122°22'0 0.0
2017-Oct-04 14:55N 37°55' W 122°22'0 0.0
2017-Oct-04 14:25N 37°55' W 122°22'0 0.0
2017-Oct-04 13:55N 37°55' W 122°22'0 0.0
2017-Oct-04 13:28N 37°55' W 122°22'0 0.0
2017-Oct-04 12:55N 37°55' W 122°22'0 0.0
2017-Oct-04 12:28N 37°55' W 122°22'0 0.0
2017-Oct-04 11:58N 37°55' W 122°22'0 0.0
2017-Oct-04 11:28N 37°55' W 122°22'0 0.0
2017-Oct-04 10:55N 37°55' W 122°22'0 0.0
2017-Oct-04 10:25N 37°55' W 122°22'0 0.0
2017-Oct-04 09:58N 37°55' W 122°22'0 0.0
2017-Oct-04 09:28N 37°55' W 122°22'0 0.0
2017-Oct-04 08:55N 37°55' W 122°22'0 0.0
2017-Oct-04 08:22N 37°55' W 122°22'0 0.0
2017-Oct-04 07:58N 37°55' W 122°22'0 0.0
2017-Oct-04 07:25N 37°55' W 122°22'0 0.0
2017-Oct-04 06:58N 37°55' W 122°22'0 0.0
2017-Oct-04 06:28N 37°55' W 122°22'0 0.0
2017-Oct-04 05:55N 37°55' W 122°22'0 0.0
2017-Oct-04 05:28N 37°55' W 122°22'0 0.0
2017-Oct-04 04:58N 37°55' W 122°22'0 0.0
2017-Oct-04 04:28N 37°55' W 122°22'0 0.0
2017-Oct-04 03:58N 37°55' W 122°22'0 0.0
2017-Oct-04 03:25N 37°55' W 122°22'0 0.0
2017-Oct-04 02:55N 37°55' W 122°22'0 0.0
2017-Oct-04 02:25N 37°55' W 122°22'0 0.0
2017-Oct-04 01:55N 37°55' W 122°22'0 0.0
2017-Oct-04 01:28N 37°55' W 122°22'0 0.0
2017-Oct-04 00:58N 37°55' W 122°22'0 0.0
2017-Oct-04 00:28N 37°55' W 122°22'0 0.0
2017-Oct-03 23:58N 37°55' W 122°22'0 0.0
2017-Oct-03 23:28N 37°55' W 122°22'0 0.0
2017-Oct-03 22:55N 37°55' W 122°22'0 0.0
2017-Oct-03 22:28N 37°55' W 122°22'0 0.0
2017-Oct-03 21:55N 37°55' W 122°22'0 0.0
2017-Oct-03 21:28N 37°55' W 122°22'0 0.0
2017-Oct-03 20:46N 37°55' W 122°22'0 0.0
2017-Oct-03 20:25N 37°55' W 122°22'0 0.0
2017-Oct-03 19:40N 37°55' W 122°22'0 0.0
2017-Oct-03 19:25N 37°55' W 122°22'0 0.0
2017-Oct-03 18:58N 37°55' W 122°22'0 0.0
2017-Oct-03 18:25N 37°55' W 122°22'0 0.0
2017-Oct-03 15:43N 37°55' W 122°22'0 0.0
2017-Oct-03 15:25N 37°55' W 122°22'0 0.0
2017-Oct-03 14:49N 37°55' W 122°22'0 0.0
2017-Oct-03 13:49N 37°55' W 122°22'0 0.0
2017-Oct-03 13:25N 37°55' W 122°22'0 0.0
2017-Oct-03 12:55N 37°55' W 122°22'0 0.0
2017-Oct-03 12:25N 37°55' W 122°22'0 0.0
2017-Oct-03 11:55N 37°55' W 122°22'0 0.0
2017-Oct-03 11:25N 37°55' W 122°22'0 0.0
2017-Oct-03 10:55N 37°55' W 122°22'0 0.0
2017-Oct-03 10:01N 37°55' W 122°22'0 0.1
2017-Oct-03 09:55N 37°55' W 122°22'0 0.0
2017-Oct-03 09:19N 37°55' W 122°22'0 0.0
2017-Oct-03 08:55N 37°55' W 122°22'0 0.0
2017-Oct-03 08:25N 37°55' W 122°22'0 0.0
2017-Oct-03 07:58N 37°55' W 122°22'0 0.0
2017-Oct-03 07:22N 37°55' W 122°22'0 0.0
2017-Oct-03 06:55N 37°55' W 122°22'0 0.0
2017-Oct-03 06:25N 37°55' W 122°22'0 0.0
2017-Oct-03 05:52N 37°55' W 122°22'0 0.0
2017-Oct-03 05:25N 37°55' W 122°22'0 0.0
2017-Oct-03 04:58N 37°55' W 122°22'0 0.0
2017-Oct-03 04:25N 37°55' W 122°22'0 0.0
2017-Oct-03 03:55N 37°55' W 122°22'0 0.0
2017-Oct-03 03:28N 37°55' W 122°22'0 0.0
2017-Oct-03 02:52N 37°55' W 122°22'0 0.0
2017-Oct-03 02:25N 37°55' W 122°22'0 0.0
2017-Oct-03 01:58N 37°55' W 122°22'0 0.0
2017-Oct-03 01:28N 37°55' W 122°22'0 0.0
2017-Oct-03 00:58N 37°55' W 122°22'0 0.0
2017-Oct-03 00:28N 37°55' W 122°22'0 0.0
2017-Oct-02 23:58N 37°55' W 122°22'0 0.0
2017-Oct-02 23:28N 37°55' W 122°22'0 0.0
2017-Oct-02 22:58N 37°55' W 122°22'0 0.0
2017-Oct-02 22:25N 37°55' W 122°22'0 0.0
2017-Oct-02 21:55N 37°55' W 122°22'0 0.0
2017-Oct-02 21:28N 37°55' W 122°22'0 0.0
2017-Oct-02 20:58N 37°55' W 122°22'0 0.0
2017-Oct-02 20:25N 37°55' W 122°22'0 0.0
2017-Oct-02 19:58N 37°55' W 122°22'0 0.0
2017-Oct-02 19:28N 37°55' W 122°22'0 0.0
2017-Oct-02 18:58N 37°55' W 122°22'0 0.0
2017-Oct-02 18:28N 37°55' W 122°22'0 0.0
2017-Oct-02 17:58N 37°55' W 122°22'0 0.0
2017-Oct-02 17:28N 37°55' W 122°22'0 0.0
2017-Oct-02 16:58N 37°55' W 122°22'0 0.0
2017-Oct-02 16:28N 37°55' W 122°22'0 0.0
2017-Oct-02 15:58N 37°55' W 122°22'0 0.0
2017-Oct-02 15:25N 37°55' W 122°22'0 0.0
2017-Oct-02 14:58N 37°55' W 122°22'0 0.0
2017-Oct-02 14:28N 37°55' W 122°22'0 0.0
2017-Oct-02 13:58N 37°55' W 122°22'0 0.0
2017-Oct-02 13:22N 37°55' W 122°22'0 0.0
2017-Oct-02 12:58N 37°55' W 122°22'0 0.0
2017-Oct-02 12:25N 37°55' W 122°22'0 0.0
2017-Oct-02 11:58N 37°55' W 122°22'0 0.0
2017-Oct-02 11:22N 37°55' W 122°22'0 0.0
2017-Oct-02 10:55N 37°55' W 122°22'0 0.0
2017-Oct-02 10:25N 37°55' W 122°22'0 0.0
2017-Oct-02 09:43N 37°55' W 122°22'0 0.0
2017-Oct-02 09:28N 37°55' W 122°22'0 0.0
2017-Oct-02 08:58N 37°55' W 122°22'0 0.0
2017-Oct-02 08:28N 37°55' W 122°22'0 0.0
2017-Oct-02 07:55N 37°55' W 122°22'0 0.0
2017-Oct-02 07:25N 37°55' W 122°22'0 0.0
2017-Oct-02 06:55N 37°55' W 122°22'0 0.0
2017-Oct-02 06:25N 37°55' W 122°22'0 0.0
2017-Oct-02 05:55N 37°55' W 122°22'0 0.0
2017-Oct-02 05:28N 37°55' W 122°22'0 0.0
2017-Oct-02 04:58N 37°55' W 122°22'0 0.0
2017-Oct-02 04:28N 37°55' W 122°22'0 0.0
2017-Oct-02 03:55N 37°55' W 122°22'0 0.0
2017-Oct-02 03:28N 37°55' W 122°22'0 0.0
2017-Oct-02 02:58N 37°55' W 122°22'0 0.0
2017-Oct-02 02:28N 37°55' W 122°22'0 0.0
2017-Oct-02 01:58N 37°55' W 122°22'0 0.0
2017-Oct-02 01:28N 37°55' W 122°22'0 0.0
2017-Oct-02 00:55N 37°55' W 122°22'0 0.0
2017-Oct-02 00:25N 37°55' W 122°22'0 0.0
2017-Oct-01 23:58N 37°55' W 122°22'0 0.0
2017-Oct-01 23:25N 37°55' W 122°22'0 0.0
2017-Oct-01 22:58N 37°55' W 122°22'0 0.0
2017-Oct-01 22:25N 37°55' W 122°22'0 0.0
2017-Oct-01 21:58N 37°55' W 122°22'0 0.0
2017-Oct-01 21:28N 37°55' W 122°22'0 0.0
2017-Oct-01 20:55N 37°55' W 122°22'0 0.0
2017-Oct-01 20:25N 37°55' W 122°22'0 0.0
2017-Oct-01 19:55N 37°55' W 122°22'0 0.0
2017-Oct-01 19:25N 37°55' W 122°22'0 0.0
2017-Oct-01 18:58N 37°55' W 122°22'0 0.0
2017-Oct-01 18:25N 37°55' W 122°22'0 0.0
2017-Oct-01 17:58N 37°55' W 122°22'0 0.0
2017-Oct-01 17:25N 37°55' W 122°22'0 0.0
2017-Oct-01 16:58N 37°55' W 122°22'0 0.0
2017-Oct-01 16:28N 37°55' W 122°22'0 0.0
2017-Oct-01 15:58N 37°55' W 122°22'0 0.0
2017-Oct-01 15:25N 37°55' W 122°22'0 0.0
2017-Oct-01 14:58N 37°55' W 122°22'0 0.0
2017-Oct-01 14:28N 37°55' W 122°22'0 0.0
2017-Oct-01 13:58N 37°55' W 122°22'0 0.0
2017-Oct-01 13:28N 37°55' W 122°22'0 0.0
2017-Oct-01 12:55N 37°55' W 122°22'0 0.0
2017-Oct-01 12:28N 37°55' W 122°22'0 0.0
2017-Oct-01 11:58N 37°55' W 122°22'0 0.0
2017-Oct-01 11:28N 37°55' W 122°22'0 0.0
2017-Oct-01 10:58N 37°55' W 122°22'0 0.0
2017-Oct-01 10:28N 37°55' W 122°22'0 0.0
2017-Oct-01 09:58N 37°55' W 122°22'0 0.0
2017-Oct-01 09:28N 37°55' W 122°22'0 0.0
2017-Oct-01 08:58N 37°55' W 122°22'0 0.0
2017-Oct-01 08:16N 37°55' W 122°22'0 0.0
2017-Oct-01 07:58N 37°55' W 122°22'0 0.0
2017-Oct-01 07:28N 37°55' W 122°22'0 0.0
2017-Oct-01 06:58N 37°55' W 122°22'0 0.0
2017-Oct-01 06:28N 37°55' W 122°22'0 0.0
2017-Oct-01 05:58N 37°55' W 122°22'0 0.0
2017-Oct-01 05:10N 37°55' W 122°22'0 0.0
2017-Oct-01 04:58N 37°55' W 122°22'0 0.0
2017-Oct-01 04:22N 37°55' W 122°22'0 0.0
2017-Oct-01 03:58N 37°55' W 122°22'0 0.0
2017-Oct-01 03:25N 37°55' W 122°22'0 0.0
2017-Oct-01 02:49N 37°55' W 122°22'0 0.0
2017-Sep-30 01:58N 37°55' W 122°22'0 0.0
2017-Sep-30 01:25N 37°55' W 122°22'0 0.0
2017-Sep-30 00:58N 37°55' W 122°22'0 0.0
2017-Sep-30 00:28N 37°55' W 122°22'0 0.0
2017-Sep-29 23:55N 37°55' W 122°22'0 0.0
2017-Sep-29 23:28N 37°55' W 122°22'0 0.0
2017-Sep-29 22:49N 37°55' W 122°22'0 0.0
2017-Sep-29 22:25N 37°55' W 122°22'0 0.0
2017-Sep-29 21:49N 37°55' W 122°22'0 0.0
2017-Sep-29 21:25N 37°55' W 122°22'0 0.0
2017-Sep-29 20:55N 37°55' W 122°22'0 0.0
2017-Sep-29 20:28N 37°55' W 122°22'0 0.0
2017-Sep-29 19:55N 37°55' W 122°22'0 0.0
2017-Sep-29 19:19N 37°55' W 122°22'0 0.0
2017-Sep-29 18:58N 37°55' W 122°22'0 0.0
2017-Sep-29 18:25N 37°55' W 122°22'0 0.0
2017-Sep-29 17:58N 37°55' W 122°22'0 0.0
2017-Sep-29 17:19N 37°55' W 122°22'0 0.0
2017-Sep-29 16:58N 37°55' W 122°22'0 0.0
2017-Sep-29 16:16N 37°55' W 122°22'0 0.0
2017-Sep-29 15:55N 37°55' W 122°22'0 0.0
2017-Sep-29 15:19N 37°55' W 122°22'0 0.0
2017-Sep-29 14:55N 37°55' W 122°22'0 0.0
2017-Sep-29 14:25N 37°55' W 122°22'0 0.0
2017-Sep-29 13:55N 37°55' W 122°22'0 0.0
2017-Sep-29 13:25N 37°55' W 122°22'0 0.0
2017-Sep-29 12:55N 37°55' W 122°22'0 0.0
2017-Sep-29 12:25N 37°55' W 122°22'0 0.0
2017-Sep-29 11:49N 37°55' W 122°22'0 0.0
2017-Sep-29 11:19N 37°55' W 122°22'0 0.0
2017-Sep-29 10:55N 37°55' W 122°22'0 0.0
2017-Sep-29 10:25N 37°55' W 122°22'0 0.0
2017-Sep-29 09:55N 37°55' W 122°22'0 0.0
2017-Sep-29 09:25N 37°55' W 122°22'0 0.0
2017-Sep-29 08:58N 37°55' W 122°22'0 0.0
2017-Sep-29 08:28N 37°55' W 122°22'0 0.0
2017-Sep-29 07:58N 37°55' W 122°22'0 0.0
2017-Sep-29 07:25N 37°55' W 122°22'  
Track history (hours):
 
Tides and Currents Weather Stations Pressure Air Temp Water Temp Dewpoint Dewpoint Depression Visibility Wind Speed Wind Dir Waves Ship Positions

Ny Trader I

Last reported at 2017-Oct-09 07:08 UTC. Time now 2017-Oct-19 02:03 UTC.
Position N 24°11' W 113°57'.
Warning: this ship's position is 9 days out of date.

Length 180 m; draft 7.5 m.

Type: Cargo ship. MMSI: 548881000.

Date/timePositionNaut miles runAvg speedWind from/ knotsBaromVisibWave heightAir tempDewpointWater temp
2017-Oct-09 07:08N 24°11' W 113°57'4412.3
2017-Oct-09 03:32N 24°40' W 114°33'1 9.2
2017-Oct-09 03:28N 24°41' W 114°34'5312.2
2017-Oct-08 23:09N 25°16' W 115°18'212.2
2017-Oct-08 22:58N 25°17' W 115°20'612.4
2017-Oct-08 22:30N 25°21' W 115°24'712.2
2017-Oct-08 21:57N 25°25' W 115°30'612.5
2017-Oct-08 21:27N 25°29' W 115°36'612.2
2017-Oct-08 20:59N 25°33' W 115°40'712.5
2017-Oct-08 20:24N 25°38' W 115°46'512.4
2017-Oct-08 19:59N 25°41' W 115°51'612.5
2017-Oct-08 19:30N 25°45' W 115°56'612.5
2017-Oct-08 19:00N 25°49' W 116°01'612.3
2017-Oct-08 18:30N 25°53' W 116°06'612.5
2017-Oct-08 18:00N 25°57' W 116°11'612.5
2017-Oct-08 17:30N 26°02' W 116°16'612.6
2017-Oct-08 17:00N 26°06' W 116°22'612.6
2017-Oct-08 16:30N 26°10' W 116°27'612.5
2017-Oct-08 16:00N 26°14' W 116°32'612.3
2017-Oct-08 15:30N 26°18' W 116°37'612.4
2017-Oct-08 15:00N 26°22' W 116°42'612.1
2017-Oct-08 14:30N 26°26' W 116°47'612.2
2017-Oct-08 14:00N 26°30' W 116°52'612.2
2017-Oct-08 13:30N 26°35' W 116°57'612.0
2017-Oct-08 13:00N 26°38' W 117°02'612.1
2017-Oct-08 12:30N 26°42' W 117°08'612.1
2017-Oct-08 12:00N 26°46' W 117°13'712.1
2017-Oct-08 11:28N 26°50' W 117°19'612.3
2017-Oct-08 11:00N 26°54' W 117°23'1112.3
2017-Oct-08 10:07N 27°01' W 117°33'1712.2
2017-Oct-08 08:46N 27°12' W 117°47'312.3
2017-Oct-08 08:29N 27°14' W 117°50'712.3
2017-Oct-08 07:56N 27°19' W 117°55'712.4
2017-Oct-08 07:23N 27°23' W 118°01'512.5
2017-Oct-08 07:00N 27°26' W 118°05'612.4
2017-Oct-08 06:30N 27°30' W 118°10'612.5
2017-Oct-08 05:59N 27°35' W 118°16'612.5
2017-Oct-08 05:30N 27°39' W 118°21'612.5
2017-Oct-08 05:00N 27°43' W 118°26'2012.5
2017-Oct-08 03:24N 27°56' W 118°43'512.3
2017-Oct-08 03:00N 27°59' W 118°48'712.3
2017-Oct-08 02:26N 28°04' W 118°54'2112.4
2017-Oct-08 00:45N 28°17' W 119°11'312.6
2017-Oct-08 00:30N 28°20' W 119°14'1112.8
2017-Oct-07 23:40N 28°26' W 119°23'212.8
2017-Oct-07 23:30N 28°28' W 119°25'713.0
2017-Oct-07 23:00N 28°32' W 119°31'1413.2
2017-Oct-07 21:55N 28°42' W 119°43'513.0
2017-Oct-07 21:31N 28°45' W 119°47'713.0
2017-Oct-07 21:00N 28°50' W 119°53'2712.8
2017-Oct-07 18:51N 29°08' W 120°17'3712.5
2017-Oct-07 15:52N 29°32' W 120°49'512.2
2017-Oct-07 15:29N 29°35' W 120°53'612.3
2017-Oct-07 14:58N 29°39' W 120°59'912.2
2017-Oct-07 14:14N 29°45' W 121°07'312.4
2017-Oct-07 14:00N 29°47' W 121°09'812.3
2017-Oct-07 13:21N 29°52' W 121°16'512.4
2017-Oct-07 12:58N 29°56' W 121°20'612.5
2017-Oct-07 12:30N 29°59' W 121°25'612.7
2017-Oct-07 12:00N 30°03' W 121°30'1812.6
2017-Oct-07 10:33N 30°15' W 121°47'112.5
2017-Oct-07 10:30N 30°16' W 121°47'612.5
2017-Oct-07 10:00N 30°20' W 121°52'612.4
2017-Oct-07 09:30N 30°24' W 121°58'612.5
2017-Oct-07 09:00N 30°28' W 122°03'612.6
2017-Oct-07 08:31N 30°32' W 122°09'712.6
2017-Oct-07 07:58N 30°37' W 122°15'612.6
2017-Oct-07 07:30N 30°40' W 122°20'612.5
2017-Oct-07 07:00N 30°45' W 122°25'912.6
2017-Oct-07 06:16N 30°51' W 122°33'312.6
2017-Oct-07 06:00N 30°53' W 122°36'612.4
2017-Oct-07 05:30N 30°56' W 122°42'612.4
2017-Oct-07 05:00N 31°01' W 122°48'612.7
2017-Oct-07 04:31N 31°05' W 122°53'612.8
2017-Oct-07 04:01N 31°09' W 122°59'612.8
2017-Oct-07 03:30N 31°13' W 123°05'712.5
2017-Oct-07 02:58N 31°17' W 123°10'612.6
2017-Oct-07 02:30N 31°21' W 123°16'612.6
2017-Oct-07 02:00N 31°25' W 123°21'1412.6
2017-Oct-07 00:51N 31°36' W 123°33'812.7
2017-Oct-07 00:11N 31°43' W 123°38'212.7
2017-Oct-07 00:00N 31°45' W 123°40'3112.7
2017-Oct-06 21:35N 32°12' W 123°57'212.5
2017-Oct-06 21:26N 32°14' W 123°58'1712.7
2017-Oct-06 20:06N 32°29' W 124°07'112.8
2017-Oct-06 20:01N 32°30' W 124°08'612.6
2017-Oct-06 19:30N 32°36' W 124°11'612.6
2017-Oct-06 19:00N 32°41' W 124°15'612.5
2017-Oct-06 18:30N 32°47' W 124°18'612.6
2017-Oct-06 18:00N 32°52' W 124°22'612.6
2017-Oct-06 17:30N 32°58' W 124°25'613.0
2017-Oct-06 17:00N 33°04' W 124°28'713.3
2017-Oct-06 16:30N 33°10' W 124°32'713.8
2017-Oct-06 16:00N 33°16' W 124°36'713.4
2017-Oct-06 15:30N 33°22' W 124°40'713.1
2017-Oct-06 15:00N 33°27' W 124°44'612.9
2017-Oct-06 14:30N 33°32' W 124°48'612.7
2017-Oct-06 14:00N 33°38' W 124°52'612.7
2017-Oct-06 13:30N 33°44' W 124°56'612.9
2017-Oct-06 13:00N 33°49' W 124°60'612.9
2017-Oct-06 12:30N 33°55' W 125°03'612.9
2017-Oct-06 12:00N 34°00' W 125°07'612.8
2017-Oct-06 11:30N 34°06' W 125°10'612.8
2017-Oct-06 11:00N 34°12' W 125°14'612.6
2017-Oct-06 10:30N 34°18' W 125°17'612.5
2017-Oct-06 10:00N 34°23' W 125°21'612.3
2017-Oct-06 09:30N 34°29' W 125°24'612.2
2017-Oct-06 09:00N 34°34' W 125°28'612.1
2017-Oct-06 08:30N 34°39' W 125°31'611.9
2017-Oct-06 08:00N 34°44' W 125°35'612.0
2017-Oct-06 07:30N 34°50' W 125°38'612.0
2017-Oct-06 07:00N 34°55' W 125°42'712.2
2017-Oct-06 06:24N 35°02' W 125°46'512.3
2017-Oct-06 06:00N 35°06' W 125°49'4411.8
2017-Oct-06 02:17N 35°35' W 125°09'311.6
2017-Oct-06 02:00N 35°37' W 125°06'1411.9
2017-Oct-06 00:47N 35°46' W 124°52'311.8
2017-Oct-06 00:30N 35°48' W 124°49'1611.6
2017-Oct-05 23:07N 35°59' W 124°33'111.9
2017-Oct-05 23:00N 35°59' W 124°32'1011.8
2017-Oct-05 22:11N 36°05' W 124°23'211.8
2017-Oct-05 22:00N 36°07' W 124°20'611.7
2017-Oct-05 21:30N 36°10' W 124°15'1411.7
2017-Oct-05 20:18N 36°20' W 124°02'411.7
2017-Oct-05 19:58N 36°22' W 123°58'511.4
2017-Oct-05 19:30N 36°25' W 123°53'711.8
2017-Oct-05 18:53N 36°30' W 123°46'512.0
2017-Oct-05 18:30N 36°33' W 123°41'612.1
2017-Oct-05 18:00N 36°37' W 123°35'612.0
2017-Oct-05 17:30N 36°40' W 123°30'612.2
2017-Oct-05 17:00N 36°44' W 123°24'1812.2
2017-Oct-05 15:30N 36°56' W 123°06'612.2
2017-Oct-05 15:00N 36°60' W 122°60'612.2
2017-Oct-05 14:30N 37°03' W 122°54'612.4
2017-Oct-05 14:00N 37°07' W 122°48'611.3
2017-Oct-05 13:30N 37°12' W 122°44'612.0
2017-Oct-05 13:00N 37°18' W 122°44'612.3
2017-Oct-05 12:30N 37°24' W 122°44'612.2
2017-Oct-05 12:00N 37°30' W 122°44'612.2
2017-Oct-05 11:30N 37°36' W 122°44'611.9
2017-Oct-05 11:00N 37°42' W 122°42'5 9.4
2017-Oct-05 10:30N 37°46' W 122°39'714.2
2017-Oct-05 10:01N 37°49' W 122°31'612.0
2017-Oct-05 09:31N 37°53' W 122°25'2 4.0
2017-Oct-05 09:01N 37°55' W 122°24'2 3.7
2017-Oct-05 08:31N 37°55' W 122°22'0 0.5
2017-Oct-05 08:01N 37°55' W 122°22'0 0.1
2017-Oct-05 07:25N 37°55' W 122°22'0 0.0
2017-Oct-05 06:55N 37°55' W 122°22'0 0.0
2017-Oct-05 06:16N 37°55' W 122°22'0 0.0
2017-Oct-05 05:37N 37°55' W 122°22'0 0.0
2017-Oct-05 05:25N 37°55' W 122°22'0 0.0
2017-Oct-05 04:55N 37°55' W 122°22'0 0.0
2017-Oct-05 04:25N 37°55' W 122°22'0 0.0
2017-Oct-05 03:55N 37°55' W 122°22'0 0.0
2017-Oct-05 03:28N 37°55' W 122°22'0 0.0
2017-Oct-05 02:55N 37°55' W 122°22'0 0.0
2017-Oct-05 02:28N 37°55' W 122°22'0 0.0
2017-Oct-05 01:58N 37°55' W 122°22'0 0.0
2017-Oct-05 01:28N 37°55' W 122°22'0 0.0
2017-Oct-05 00:55N 37°55' W 122°22'0 0.0
2017-Oct-05 00:25N 37°55' W 122°22'0 0.0
2017-Oct-04 23:58N 37°55' W 122°22'0 0.0
2017-Oct-04 23:25N 37°55' W 122°22'0 0.0
2017-Oct-04 22:58N 37°55' W 122°22'0 0.0
2017-Oct-04 22:28N 37°55' W 122°22'0 0.0
2017-Oct-04 21:58N 37°55' W 122°22'0 0.0
2017-Oct-04 21:19N 37°55' W 122°22'0 0.0
2017-Oct-04 20:52N 37°55' W 122°22'0 0.0
2017-Oct-04 20:25N 37°55' W 122°22'0 0.0
2017-Oct-04 19:58N 37°55' W 122°22'0 0.0
2017-Oct-04 19:19N 37°55' W 122°22'0 0.0
2017-Oct-04 18:55N 37°55' W 122°22'0 0.0
2017-Oct-04 18:28N 37°55' W 122°22'0 0.0
2017-Oct-04 17:55N 37°55' W 122°22'0 0.0
2017-Oct-04 17:28N 37°55' W 122°22'0 0.0
2017-Oct-04 16:58N 37°55' W 122°22'0 0.0
2017-Oct-04 16:28N 37°55' W 122°22'0 0.0
2017-Oct-04 15:49N 37°55' W 122°22'0 0.0
2017-Oct-04 15:28N 37°55' W 122°22'0 0.0
2017-Oct-04 14:55N 37°55' W 122°22'0 0.0
2017-Oct-04 14:25N 37°55' W 122°22'0 0.0
2017-Oct-04 13:55N 37°55' W 122°22'0 0.0
2017-Oct-04 13:28N 37°55' W 122°22'0 0.0
2017-Oct-04 12:55N 37°55' W 122°22'0 0.0
2017-Oct-04 12:28N 37°55' W 122°22'0 0.0
2017-Oct-04 11:58N 37°55' W 122°22'0 0.0
2017-Oct-04 11:28N 37°55' W 122°22'0 0.0
2017-Oct-04 10:55N 37°55' W 122°22'0 0.0
2017-Oct-04 10:25N 37°55' W 122°22'0 0.0
2017-Oct-04 09:58N 37°55' W 122°22'0 0.0
2017-Oct-04 09:28N 37°55' W 122°22'0 0.0
2017-Oct-04 08:55N 37°55' W 122°22'0 0.0
2017-Oct-04 08:22N 37°55' W 122°22'0 0.0
2017-Oct-04 07:58N 37°55' W 122°22'0 0.0
2017-Oct-04 07:25N 37°55' W 122°22'0 0.0
2017-Oct-04 06:58N 37°55' W 122°22'0 0.0
2017-Oct-04 06:28N 37°55' W 122°22'0 0.0
2017-Oct-04 05:55N 37°55' W 122°22'0 0.0
2017-Oct-04 05:28N 37°55' W 122°22'0 0.0
2017-Oct-04 04:58N 37°55' W 122°22'0 0.0
2017-Oct-04 04:28N 37°55' W 122°22'0 0.0
2017-Oct-04 03:58N 37°55' W 122°22'0 0.0
2017-Oct-04 03:25N 37°55' W 122°22'0 0.0
2017-Oct-04 02:55N 37°55' W 122°22'0 0.0
2017-Oct-04 02:25N 37°55' W 122°22'0 0.0
2017-Oct-04 01:55N 37°55' W 122°22'0 0.0
2017-Oct-04 01:28N 37°55' W 122°22'0 0.0
2017-Oct-04 00:58N 37°55' W 122°22'0 0.0
2017-Oct-04 00:28N 37°55' W 122°22'0 0.0
2017-Oct-03 23:58N 37°55' W 122°22'0 0.0
2017-Oct-03 23:28N 37°55' W 122°22'0 0.0
2017-Oct-03 22:55N 37°55' W 122°22'0 0.0
2017-Oct-03 22:28N 37°55' W 122°22'0 0.0
2017-Oct-03 21:55N 37°55' W 122°22'0 0.0
2017-Oct-03 21:28N 37°55' W 122°22'0 0.0
2017-Oct-03 20:46N 37°55' W 122°22'0 0.0
2017-Oct-03 20:25N 37°55' W 122°22'0 0.0
2017-Oct-03 19:40N 37°55' W 122°22'0 0.0
2017-Oct-03 19:25N 37°55' W 122°22'0 0.0
2017-Oct-03 18:58N 37°55' W 122°22'0 0.0
2017-Oct-03 18:25N 37°55' W 122°22'0 0.0
2017-Oct-03 15:43N 37°55' W 122°22'0 0.0
2017-Oct-03 15:25N 37°55' W 122°22'0 0.0
2017-Oct-03 14:49N 37°55' W 122°22'0 0.0
2017-Oct-03 13:49N 37°55' W 122°22'0 0.0
2017-Oct-03 13:25N 37°55' W 122°22'0 0.0
2017-Oct-03 12:55N 37°55' W 122°22'0 0.0
2017-Oct-03 12:25N 37°55' W 122°22'0 0.0
2017-Oct-03 11:55N 37°55' W 122°22'0 0.0
2017-Oct-03 11:25N 37°55' W 122°22'0 0.0
2017-Oct-03 10:55N 37°55' W 122°22'0 0.0
2017-Oct-03 10:01N 37°55' W 122°22'0 0.1
2017-Oct-03 09:55N 37°55' W 122°22'0 0.0
2017-Oct-03 09:19N 37°55' W 122°22'0 0.0
2017-Oct-03 08:55N 37°55' W 122°22'0 0.0
2017-Oct-03 08:25N 37°55' W 122°22'0 0.0
2017-Oct-03 07:58N 37°55' W 122°22'0 0.0
2017-Oct-03 07:22N 37°55' W 122°22'0 0.0
2017-Oct-03 06:55N 37°55' W 122°22'0 0.0
2017-Oct-03 06:25N 37°55' W 122°22'0 0.0
2017-Oct-03 05:52N 37°55' W 122°22'0 0.0
2017-Oct-03 05:25N 37°55' W 122°22'0 0.0
2017-Oct-03 04:58N 37°55' W 122°22'0 0.0
2017-Oct-03 04:25N 37°55' W 122°22'0 0.0
2017-Oct-03 03:55N 37°55' W 122°22'0 0.0
2017-Oct-03 03:28N 37°55' W 122°22'0 0.0
2017-Oct-03 02:52N 37°55' W 122°22'0 0.0
2017-Oct-03 02:25N 37°55' W 122°22'0 0.0
2017-Oct-03 01:58N 37°55' W 122°22'0 0.0
2017-Oct-03 01:28N 37°55' W 122°22'0 0.0
2017-Oct-03 00:58N 37°55' W 122°22'0 0.0
2017-Oct-03 00:28N 37°55' W 122°22'0 0.0
2017-Oct-02 23:58N 37°55' W 122°22'0 0.0
2017-Oct-02 23:28N 37°55' W 122°22'0 0.0
2017-Oct-02 22:58N 37°55' W 122°22'0 0.0
2017-Oct-02 22:25N 37°55' W 122°22'0 0.0
2017-Oct-02 21:55N 37°55' W 122°22'0 0.0
2017-Oct-02 21:28N 37°55' W 122°22'0 0.0
2017-Oct-02 20:58N 37°55' W 122°22'0 0.0
2017-Oct-02 20:25N 37°55' W 122°22'0 0.0
2017-Oct-02 19:58N 37°55' W 122°22'0 0.0
2017-Oct-02 19:28N 37°55' W 122°22'0 0.0
2017-Oct-02 18:58N 37°55' W 122°22'0 0.0
2017-Oct-02 18:28N 37°55' W 122°22'0 0.0
2017-Oct-02 17:58N 37°55' W 122°22'0 0.0
2017-Oct-02 17:28N 37°55' W 122°22'0 0.0
2017-Oct-02 16:58N 37°55' W 122°22'0 0.0
2017-Oct-02 16:28N 37°55' W 122°22'0 0.0
2017-Oct-02 15:58N 37°55' W 122°22'0 0.0
2017-Oct-02 15:25N 37°55' W 122°22'0 0.0
2017-Oct-02 14:58N 37°55' W 122°22'0 0.0
2017-Oct-02 14:28N 37°55' W 122°22'0 0.0
2017-Oct-02 13:58N 37°55' W 122°22'0 0.0
2017-Oct-02 13:22N 37°55' W 122°22'0 0.0
2017-Oct-02 12:58N 37°55' W 122°22'0 0.0
2017-Oct-02 12:25N 37°55' W 122°22'0 0.0
2017-Oct-02 11:58N 37°55' W 122°22'0 0.0
2017-Oct-02 11:22N 37°55' W 122°22'0 0.0
2017-Oct-02 10:55N 37°55' W 122°22'0 0.0
2017-Oct-02 10:25N 37°55' W 122°22'0 0.0
2017-Oct-02 09:43N 37°55' W 122°22'0 0.0
2017-Oct-02 09:28N 37°55' W 122°22'0 0.0
2017-Oct-02 08:58N 37°55' W 122°22'0 0.0
2017-Oct-02 08:28N 37°55' W 122°22'0 0.0
2017-Oct-02 07:55N 37°55' W 122°22'0 0.0
2017-Oct-02 07:25N 37°55' W 122°22'0 0.0
2017-Oct-02 06:55N 37°55' W 122°22'0 0.0
2017-Oct-02 06:25N 37°55' W 122°22'0 0.0
2017-Oct-02 05:55N 37°55' W 122°22'0 0.0
2017-Oct-02 05:28N 37°55' W 122°22'0 0.0
2017-Oct-02 04:58N 37°55' W 122°22'0 0.0
2017-Oct-02 04:28N 37°55' W 122°22'0 0.0
2017-Oct-02 03:55N 37°55' W 122°22'0 0.0
2017-Oct-02 03:28N 37°55' W 122°22'0 0.0
2017-Oct-02 02:58N 37°55' W 122°22'0 0.0
2017-Oct-02 02:28N 37°55' W 122°22'0 0.0
2017-Oct-02 01:58N 37°55' W 122°22'0 0.0
2017-Oct-02 01:28N 37°55' W 122°22'0 0.0
2017-Oct-02 00:55N 37°55' W 122°22'0 0.0
2017-Oct-02 00:25N 37°55' W 122°22'0 0.0
2017-Oct-01 23:58N 37°55' W 122°22'0 0.0
2017-Oct-01 23:25N 37°55' W 122°22'0 0.0
2017-Oct-01 22:58N 37°55' W 122°22'0 0.0
2017-Oct-01 22:25N 37°55' W 122°22'0 0.0
2017-Oct-01 21:58N 37°55' W 122°22'0 0.0
2017-Oct-01 21:28N 37°55' W 122°22'0 0.0
2017-Oct-01 20:55N 37°55' W 122°22'0 0.0
2017-Oct-01 20:25N 37°55' W 122°22'0 0.0
2017-Oct-01 19:55N 37°55' W 122°22'0 0.0
2017-Oct-01 19:25N 37°55' W 122°22'0 0.0
2017-Oct-01 18:58N 37°55' W 122°22'0 0.0
2017-Oct-01 18:25N 37°55' W 122°22'0 0.0
2017-Oct-01 17:58N 37°55' W 122°22'0 0.0
2017-Oct-01 17:25N 37°55' W 122°22'0 0.0
2017-Oct-01 16:58N 37°55' W 122°22'0 0.0
2017-Oct-01 16:28N 37°55' W 122°22'0 0.0
2017-Oct-01 15:58N 37°55' W 122°22'0 0.0
2017-Oct-01 15:25N 37°55' W 122°22'0 0.0
2017-Oct-01 14:58N 37°55' W 122°22'0 0.0
2017-Oct-01 14:28N 37°55' W 122°22'0 0.0
2017-Oct-01 13:58N 37°55' W 122°22'0 0.0
2017-Oct-01 13:28N 37°55' W 122°22'0 0.0
2017-Oct-01 12:55N 37°55' W 122°22'0 0.0
2017-Oct-01 12:28N 37°55' W 122°22'0 0.0
2017-Oct-01 11:58N 37°55' W 122°22'0 0.0
2017-Oct-01 11:28N 37°55' W 122°22'0 0.0
2017-Oct-01 10:58N 37°55' W 122°22'0 0.0
2017-Oct-01 10:28N 37°55' W 122°22'0 0.0
2017-Oct-01 09:58N 37°55' W 122°22'0 0.0
2017-Oct-01 09:28N 37°55' W 122°22'0 0.0
2017-Oct-01 08:58N 37°55' W 122°22'0 0.0
2017-Oct-01 08:16N 37°55' W 122°22'0 0.0
2017-Oct-01 07:58N 37°55' W 122°22'0 0.0
2017-Oct-01 07:28N 37°55' W 122°22'0 0.0
2017-Oct-01 06:58N 37°55' W 122°22'0 0.0
2017-Oct-01 06:28N 37°55' W 122°22'0 0.0
2017-Oct-01 05:58N 37°55' W 122°22'0 0.0
2017-Oct-01 05:10N 37°55' W 122°22'0 0.0
2017-Oct-01 04:58N 37°55' W 122°22'0 0.0
2017-Oct-01 04:22N 37°55' W 122°22'0 0.0
2017-Oct-01 03:58N 37°55' W 122°22'0 0.0
2017-Oct-01 03:25N 37°55' W 122°22'0 0.0
2017-Oct-01 02:49N 37°55' W 122°22'0 0.0
2017-Sep-30 01:58N 37°55' W 122°22'0 0.0
2017-Sep-30 01:25N 37°55' W 122°22'0 0.0
2017-Sep-30 00:58N 37°55' W 122°22'0 0.0
2017-Sep-30 00:28N 37°55' W 122°22'0 0.0
2017-Sep-29 23:55N 37°55' W 122°22'0 0.0
2017-Sep-29 23:28N 37°55' W 122°22'0 0.0
2017-Sep-29 22:49N 37°55' W 122°22'0 0.0
2017-Sep-29 22:25N 37°55' W 122°22'0 0.0
2017-Sep-29 21:49N 37°55' W 122°22'0 0.0
2017-Sep-29 21:25N 37°55' W 122°22'0 0.0
2017-Sep-29 20:55N 37°55' W 122°22'0 0.0
2017-Sep-29 20:28N 37°55' W 122°22'0 0.0
2017-Sep-29 19:55N 37°55' W 122°22'0 0.0
2017-Sep-29 19:19N 37°55' W 122°22'0 0.0
2017-Sep-29 18:58N 37°55' W 122°22'0 0.0
2017-Sep-29 18:25N 37°55' W 122°22'0 0.0
2017-Sep-29 17:58N 37°55' W 122°22'0 0.0
2017-Sep-29 17:19N 37°55' W 122°22'0 0.0
2017-Sep-29 16:58N 37°55' W 122°22'0 0.0
2017-Sep-29 16:16N 37°55' W 122°22'0 0.0
2017-Sep-29 15:55N 37°55' W 122°22'0 0.0
2017-Sep-29 15:19N 37°55' W 122°22'0 0.0
2017-Sep-29 14:55N 37°55' W 122°22'0 0.0
2017-Sep-29 14:25N 37°55' W 122°22'0 0.0
2017-Sep-29 13:55N 37°55' W 122°22'0 0.0
2017-Sep-29 13:25N 37°55' W 122°22'0 0.0
2017-Sep-29 12:55N 37°55' W 122°22'0 0.0
2017-Sep-29 12:25N 37°55' W 122°22'0 0.0
2017-Sep-29 11:49N 37°55' W 122°22'0 0.0
2017-Sep-29 11:19N 37°55' W 122°22'0 0.0
2017-Sep-29 10:55N 37°55' W 122°22'0 0.0
2017-Sep-29 10:25N 37°55' W 122°22'0 0.0
2017-Sep-29 09:55N 37°55' W 122°22'0 0.0
2017-Sep-29 09:25N 37°55' W 122°22'0 0.0
2017-Sep-29 08:58N 37°55' W 122°22'0 0.0
2017-Sep-29 08:28N 37°55' W 122°22'0 0.0
2017-Sep-29 07:58N 37°55' W 122°22'0 0.0
2017-Sep-29 07:25N 37°55' W 122°22'  

Dump ship's entire track history